createdAt,value
2022-09-12T00:00:34.912Z,11.92
2022-09-12T00:06:02.271Z,11.95
2022-09-12T00:11:11.199Z,11.97
2022-09-12T00:16:20.770Z,11.97
2022-09-12T00:21:27.813Z,11.94
2022-09-12T00:38:07.238Z,11.74
2022-09-12T00:43:17.097Z,11.67
2022-09-12T00:48:33.611Z,11.62
2022-09-12T00:53:43.522Z,11.54
2022-09-12T00:59:11.194Z,11.48
2022-09-12T01:04:31.502Z,11.41
2022-09-12T01:09:54.363Z,11.35
2022-09-12T01:15:03.612Z,11.33
2022-09-12T01:20:42.641Z,11.34
2022-09-12T01:26:51.521Z,11.35
2022-09-12T01:32:18.406Z,11.38
2022-09-12T01:38:22.128Z,11.40
2022-09-12T01:43:55.137Z,11.41
2022-09-12T01:49:41.739Z,11.43
2022-09-12T01:55:26.807Z,11.45
2022-09-12T02:01:00.794Z,11.42
2022-09-12T02:06:54.169Z,11.40
2022-09-12T02:12:48.667Z,11.40
2022-09-12T02:18:42.936Z,11.41
2022-09-12T02:24:08.913Z,11.44
2022-09-12T02:29:49.968Z,11.45
2022-09-12T02:35:01.904Z,11.46
2022-09-12T02:40:12.704Z,11.43
2022-09-12T02:45:24.926Z,11.38
2022-09-12T02:50:36.712Z,11.36
2022-09-12T02:55:46.574Z,11.29
2022-09-12T03:01:26.216Z,11.23
2022-09-12T03:06:59.866Z,11.18
2022-09-12T03:12:36.445Z,11.14
2022-09-12T03:18:17.882Z,11.08
2022-09-12T03:24:06.747Z,11.05
2022-09-12T03:29:16.238Z,10.99
2022-09-12T03:34:24.917Z,10.93
2022-09-12T03:39:31.831Z,10.87
2022-09-12T03:44:37.162Z,10.84
2022-09-12T03:49:43.976Z,10.77
2022-09-12T03:54:49.276Z,10.69
2022-09-12T03:59:56.154Z,10.65
2022-09-12T04:05:03.164Z,10.61
2022-09-12T04:10:10.782Z,10.58
2022-09-12T04:15:17.661Z,10.57
2022-09-12T04:20:24.693Z,10.56
2022-09-12T04:25:31.594Z,10.54
2022-09-12T04:33:38.114Z,10.56
2022-09-12T04:38:46.352Z,10.51
2022-09-12T04:43:58.325Z,10.46
2022-09-12T04:49:05.962Z,10.43
2022-09-12T04:54:16.288Z,10.42
2022-09-12T04:59:23.933Z,10.42
2022-09-12T05:04:31.856Z,10.42
2022-09-12T05:09:39.047Z,10.46
2022-09-12T05:14:46.611Z,10.50
2022-09-12T05:19:53.528Z,10.53
2022-09-12T05:24:58.801Z,10.65
2022-09-12T05:30:06.358Z,10.81
2022-09-12T05:35:13.788Z,10.95
2022-09-12T05:40:21.839Z,11.07
2022-09-12T05:45:28.690Z,11.16
2022-09-12T05:50:35.834Z,11.22
2022-09-12T05:55:42.934Z,11.28
2022-09-12T06:00:50.565Z,11.27
2022-09-12T06:05:57.463Z,11.26
2022-09-12T06:11:04.049Z,11.33
2022-09-12T06:16:12.741Z,11.40
2022-09-12T06:21:19.724Z,11.43
2022-09-12T06:26:25.851Z,11.43
2022-09-12T06:31:35.770Z,11.48
2022-09-12T06:36:44.211Z,11.55
2022-09-12T06:41:52.124Z,11.58
2022-09-12T06:46:58.964Z,11.59
2022-09-12T06:52:04.583Z,11.63
2022-09-12T06:57:11.637Z,11.70
2022-09-12T07:02:19.845Z,11.70
2022-09-12T07:07:26.796Z,11.74
2022-09-12T07:12:32.109Z,11.81
2022-09-12T07:17:39.000Z,11.82
2022-09-12T07:22:47.066Z,11.83
2022-09-12T07:27:55.517Z,11.88
2022-09-12T07:33:03.756Z,11.90
2022-09-12T07:38:10.989Z,12.00
2022-09-12T07:43:17.843Z,12.04
2022-09-12T07:48:25.221Z,12.00
2022-09-12T07:53:37.115Z,12.14
2022-09-12T07:58:44.873Z,12.30
2022-09-12T08:03:55.638Z,12.49
2022-09-12T08:09:03.068Z,12.64
2022-09-12T08:14:10.245Z,12.84
2022-09-12T08:19:17.135Z,12.96
2022-09-12T08:24:25.183Z,13.08
2022-09-12T08:29:32.164Z,12.94
2022-09-12T08:34:40.680Z,12.81
2022-09-12T08:39:48.063Z,12.88
2022-09-12T08:45:09.551Z,13.04
2022-09-12T08:50:23.409Z,13.16
2022-09-12T08:55:38.798Z,13.28
2022-09-12T09:00:56.019Z,13.32
2022-09-12T09:06:07.198Z,13.34
2022-09-12T09:11:28.325Z,13.30
2022-09-12T09:16:38.858Z,13.33
2022-09-12T09:21:51.052Z,13.38
2022-09-12T09:27:14.318Z,13.37
2022-09-12T09:32:35.733Z,13.48
2022-09-12T09:38:02.117Z,13.63
2022-09-12T09:43:23.206Z,13.78
2022-09-12T09:48:32.511Z,13.96
2022-09-12T09:53:47.131Z,13.96
2022-09-12T09:58:54.067Z,13.94
2022-09-12T10:04:01.538Z,14.02
2022-09-12T10:09:19.887Z,14.07
2022-09-12T10:14:35.196Z,14.22
2022-09-12T10:19:42.791Z,14.43
2022-09-12T10:24:53.842Z,14.57
2022-09-12T10:30:08.005Z,14.66
2022-09-12T10:45:31.102Z,14.97
2022-09-12T10:50:46.702Z,15.02
2022-09-12T10:56:45.323Z,15.01
2022-09-12T11:02:17.267Z,15.09
2022-09-12T11:07:41.162Z,15.24
2022-09-12T11:13:17.400Z,15.39
2022-09-12T11:18:54.786Z,15.45
2022-09-12T11:30:12.623Z,15.66
2022-09-12T11:35:59.387Z,15.72
2022-09-12T11:41:45.047Z,15.81
2022-09-12T11:46:59.129Z,15.97
2022-09-12T11:52:27.496Z,16.09
2022-09-12T11:57:43.608Z,16.12
2022-09-12T12:03:05.423Z,16.14
2022-09-12T12:08:17.358Z,16.19
2022-09-12T12:13:28.239Z,16.30
2022-09-12T12:18:39.115Z,16.31
2022-09-12T12:24:12.804Z,16.35
2022-09-12T12:29:43.930Z,16.36
2022-09-12T12:34:51.497Z,16.45
2022-09-12T12:40:10.028Z,16.58
2022-09-12T12:45:48.943Z,16.56
2022-09-12T12:51:18.561Z,16.42
2022-09-12T12:56:47.145Z,16.53
2022-09-12T13:01:59.028Z,16.69
2022-09-12T13:07:12.283Z,16.85
2022-09-12T13:12:25.596Z,16.98
2022-09-12T13:17:40.327Z,17.07
2022-09-12T13:22:53.457Z,17.03
2022-09-12T13:36:57.045Z,17.07
2022-09-12T13:42:41.498Z,17.17
2022-09-12T13:47:55.399Z,17.22
2022-09-12T13:53:23.574Z,17.23
2022-09-12T13:58:33.250Z,17.20
2022-09-12T14:04:07.311Z,17.17
2022-09-12T14:09:31.727Z,17.10
2022-09-12T14:14:47.641Z,17.05
2022-09-12T14:20:00.801Z,16.90
2022-09-12T14:25:20.145Z,16.78
2022-09-12T14:30:30.677Z,16.72
2022-09-12T14:35:42.674Z,16.68
2022-09-12T14:40:53.093Z,16.68
2022-09-12T14:46:03.516Z,16.71
2022-09-12T14:51:19.812Z,16.72
2022-09-12T14:56:41.719Z,16.77
2022-09-12T15:01:49.857Z,16.84
2022-09-12T15:06:57.100Z,16.87
2022-09-12T15:12:05.981Z,16.92
2022-09-12T15:17:14.398Z,16.93
2022-09-12T15:22:26.350Z,16.91
2022-09-12T15:27:34.931Z,16.87
2022-09-12T15:32:45.343Z,16.82
2022-09-12T15:37:55.732Z,16.77
2022-09-12T15:43:03.437Z,16.70
2022-09-12T15:48:11.361Z,16.66
2022-09-12T15:53:20.477Z,16.61
2022-09-12T15:58:32.774Z,16.57
2022-09-12T16:03:40.854Z,16.55
2022-09-12T16:08:49.784Z,16.51
2022-09-12T16:14:03.440Z,16.45
2022-09-12T16:19:13.027Z,16.38
2022-09-12T16:24:41.432Z,16.28
2022-09-12T16:29:59.401Z,16.12
2022-09-12T16:35:13.290Z,15.96
2022-09-12T16:40:21.897Z,15.82
2022-09-12T16:45:32.865Z,15.69
2022-09-12T16:50:41.015Z,15.54
2022-09-12T16:55:55.713Z,15.40
2022-09-12T17:01:22.531Z,15.25
2022-09-12T17:12:00.351Z,14.91
2022-09-12T17:17:16.406Z,14.73
2022-09-12T17:22:24.736Z,14.45
2022-09-12T17:27:32.626Z,14.20
2022-09-12T17:32:41.236Z,14.11
2022-09-12T17:38:03.283Z,13.97
2022-09-12T17:43:22.865Z,13.83
2022-09-12T17:48:31.860Z,13.66
2022-09-12T17:53:49.228Z,13.48
2022-09-12T17:59:04.687Z,13.28
2022-09-12T18:04:14.001Z,13.14
2022-09-12T18:09:23.473Z,12.99
2022-09-12T18:14:31.825Z,12.77
2022-09-12T18:19:41.130Z,12.56
2022-09-12T18:30:22.223Z,12.56
2022-09-12T18:35:30.361Z,12.56
2022-09-12T18:40:42.017Z,12.59
2022-09-12T18:45:58.016Z,12.65
2022-09-12T18:51:08.453Z,12.62
2022-09-12T18:56:24.356Z,12.57
2022-09-12T19:02:06.622Z,12.52
2022-09-12T19:07:17.854Z,12.48
2022-09-12T19:12:43.475Z,12.53
2022-09-12T19:18:18.824Z,12.57
2022-09-12T19:23:26.433Z,12.59
2022-09-12T19:28:48.927Z,12.51
2022-09-12T19:34:00.051Z,12.43
2022-09-12T19:39:13.589Z,12.39
2022-09-12T19:44:28.292Z,12.27
2022-09-12T19:56:11.273Z,12.02
2022-09-12T20:01:25.472Z,12.01
2022-09-12T20:06:33.198Z,11.99
2022-09-12T20:11:41.178Z,11.95
2022-09-12T20:16:49.097Z,11.86
2022-09-12T20:21:57.832Z,11.71
2022-09-12T20:27:10.966Z,11.51
2022-09-12T20:32:31.119Z,11.36
2022-09-12T20:37:40.914Z,11.32
2022-09-12T20:42:53.661Z,11.28
2022-09-12T20:48:01.374Z,11.20
2022-09-12T20:53:13.797Z,11.14
2022-09-12T20:58:23.968Z,11.04
2022-09-12T21:03:32.301Z,11.00
2022-09-12T21:08:43.336Z,10.99
2022-09-12T21:13:54.850Z,10.94
2022-09-12T21:19:09.153Z,10.81
2022-09-12T21:24:18.508Z,10.70
2022-09-12T21:29:26.939Z,10.67
2022-09-12T21:34:35.522Z,10.61
2022-09-12T21:39:52.082Z,10.57
2022-09-12T21:45:00.827Z,10.62
2022-09-12T21:50:11.051Z,10.65
2022-09-12T21:55:29.566Z,10.51
2022-09-12T22:06:51.201Z,10.24
2022-09-12T22:11:59.635Z,10.22
2022-09-12T22:17:11.595Z,10.15
2022-09-12T22:22:52.310Z,10.14
2022-09-12T22:28:17.329Z,10.14
2022-09-12T22:33:30.358Z,10.10
2022-09-12T22:38:51.486Z,10.01
2022-09-12T22:44:08.605Z,9.95
2022-09-12T22:49:16.961Z,9.85
2022-09-12T22:54:27.362Z,9.81
2022-09-12T22:59:35.334Z,9.79
2022-09-12T23:04:45.097Z,9.75
2022-09-12T23:09:56.443Z,9.68
2022-09-12T23:15:07.383Z,9.55
2022-09-12T23:20:19.308Z,9.43
2022-09-12T23:25:27.778Z,9.31
2022-09-12T23:30:36.311Z,9.24
2022-09-12T23:35:44.743Z,9.29
2022-09-12T23:46:23.808Z,9.25
2022-09-12T23:51:36.033Z,9.19
2022-09-12T23:56:49.012Z,9.19
